Time;durP1;ratioP1;P1;durP2;ratioP2;P2;SDS_P1;SDS_P2;PMS_P1;PMS_P2;Temp;Humidity;BMP_temperature;BMP_pressure;BME280_temperature;BME280_humidity;BME280_pressure;Samples;Min_cycle;Max_cycle;Signal;HPM_P1;HPM_P2
2022/01/04 00:01:17;;;;;;;10.33;3.77;;;11.70;71.70;;;14.48;54.64;99983.94;4860439;29;20224;-64
2022/01/04 00:03:45;;;;;;;7.20;4.40;;;11.70;71.70;;;14.49;54.85;99968.88;4860086;29;20572;-64
2022/01/04 00:06:12;;;;;;;9.00;4.57;;;11.70;71.70;;;14.50;54.60;99963.34;4860522;29;20203;-64
2022/01/04 00:08:42;;;;;;;10.67;5.57;;;11.70;71.80;;;14.46;54.55;99950.78;4858976;29;20255;-64
2022/01/04 00:11:16;;;;;;;8.17;4.97;;;11.70;71.70;;;14.43;54.68;99951.22;4860351;29;20670;-64
2022/01/04 00:13:45;;;;;;;9.90;4.87;;;11.60;71.60;;;14.37;54.77;99955.56;4858592;29;20247;-64
2022/01/04 00:16:13;;;;;;;8.87;5.13;;;11.70;71.70;;;14.36;55.01;99948.63;4859013;29;20205;-64
2022/01/04 00:18:41;;;;;;;10.43;5.17;;;11.60;71.70;;;14.38;54.69;99951.06;4858670;29;20237;-64
2022/01/04 00:21:09;;;;;;;5.90;4.13;;;11.60;71.70;;;14.39;54.83;99942.91;4860150;29;20232;-64
2022/01/04 00:23:36;;;;;;;13.53;5.00;;;11.60;71.90;;;14.44;54.78;99944.88;4859756;29;20221;-64
2022/01/04 00:26:05;;;;;;;13.80;6.20;;;11.60;72.00;;;14.45;54.67;99934.09;4861836;29;20224;-62
2022/01/04 00:28:33;;;;;;;10.50;5.47;;;11.60;71.90;;;14.44;54.86;99935.13;4863998;29;20304;-64
2022/01/04 00:31:00;;;;;;;12.40;5.77;;;11.60;71.90;;;14.43;54.97;99928.19;4864007;29;20239;-64
2022/01/04 00:33:27;;;;;;;13.07;5.53;;;11.60;71.90;;;14.45;54.82;99920.88;4863595;29;20686;-64
2022/01/04 00:35:55;;;;;;;7.73;4.87;;;11.60;72.00;;;14.47;54.73;99917.97;4863663;29;20287;-62
2022/01/04 00:38:22;;;;;;;12.53;6.03;;;11.60;72.10;;;14.49;54.56;99911.44;4863921;29;20193;-62
2022/01/04 00:40:49;;;;;;;8.90;5.53;;;11.60;72.10;;;14.54;54.80;99906.28;4863675;29;20197;-63
2022/01/04 00:43:18;;;;;;;10.60;5.63;;;11.60;72.90;;;14.52;54.78;99905.72;4862149;29;20246;-64
2022/01/04 00:45:45;;;;;;;11.60;5.47;;;11.60;72.00;;;14.49;55.02;99903.50;4863816;29;20207;-64
2022/01/04 00:50:41;;;;;;;11.47;6.60;;;11.60;72.10;;;14.47;54.78;99894.97;4863607;29;20228;-64
2022/01/04 00:53:08;;;;;;;11.53;7.23;;;11.60;72.20;;;14.49;54.94;99895.56;4863050;29;20236;-64
2022/01/04 00:55:36;;;;;;;10.33;6.03;;;11.60;72.30;;;14.51;54.83;99900.63;4863552;29;20193;-64
2022/01/04 00:58:05;;;;;;;9.53;6.83;;;11.60;72.30;;;14.50;55.13;99891.84;4863455;29;20199;-64
2022/01/04 01:00:36;;;;;;;10.73;6.80;;;11.60;72.20;;;14.49;54.72;99889.44;4863375;29;20248;-64
2022/01/04 01:03:06;;;;;;;9.80;6.90;;;11.70;72.30;;;14.48;54.88;99885.97;4861672;29;20281;-64
2022/01/04 01:05:34;;;;;;;9.83;6.90;;;11.70;72.30;;;14.48;54.89;99883.34;4863224;29;20631;-64
2022/01/04 01:08:01;;;;;;;10.03;6.23;;;11.70;72.20;;;14.50;54.87;99877.84;4862850;29;20386;-64
2022/01/04 01:13:05;;;;;;;10.00;7.40;;;11.70;72.20;;;14.54;54.81;99874.50;4862907;29;20291;-64
2022/01/04 01:15:35;;;;;;;10.80;7.80;;;11.70;72.20;;;14.55;54.87;99868.16;4863156;29;20226;-64
2022/01/04 01:18:03;;;;;;;9.70;6.97;;;11.70;72.30;;;14.56;54.90;99877.75;4863197;29;20216;-64
2022/01/04 01:20:31;;;;;;;11.13;8.03;;;11.70;72.40;;;14.53;54.94;99870.25;4862698;29;20204;-64
2022/01/04 01:22:59;;;;;;;11.73;7.17;;;11.70;72.50;;;14.50;55.11;99864.59;4862856;29;20222;-64
2022/01/04 01:25:26;;;;;;;9.87;6.40;;;11.70;72.40;;;14.52;54.99;99863.34;4862815;29;20282;-64
2022/01/04 01:27:53;;;;;;;8.97;6.07;;;11.70;72.50;;;14.55;54.80;99854.94;4862981;29;20221;-64
2022/01/04 01:30:22;;;;;;;12.80;7.30;;;11.70;72.50;;;14.55;54.53;99849.63;4862914;29;20688;-64
2022/01/04 01:32:51;;;;;;;8.90;7.03;;;11.70;72.40;;;14.52;54.77;99847.44;4862554;29;20243;-64
2022/01/04 01:35:19;;;;;;;18.40;9.27;;;11.70;73.10;;;14.44;55.04;99847.75;4862627;29;20196;-64
2022/01/04 01:37:46;;;;;;;11.33;7.93;;;11.70;72.30;;;14.32;55.50;99846.03;4862476;29;20275;-62
2022/01/04 01:40:14;;;;;;;12.97;8.57;;;11.60;72.30;;;14.21;55.65;99835.13;4861891;29;20224;-64
2022/01/04 01:42:41;;;;;;;13.30;7.80;;;11.60;72.30;;;14.16;55.64;99837.66;4861250;29;20212;-64
2022/01/04 01:45:12;;;;;;;10.23;8.13;;;11.60;72.40;;;14.13;55.71;99839.91;4862997;29;20573;-64
2022/01/04 01:47:41;;;;;;;12.37;8.70;;;11.50;72.50;;;14.08;56.39;99835.28;4862928;29;20219;-64
2022/01/04 01:50:11;;;;;;;12.10;7.80;;;11.50;72.60;;;14.06;56.00;99826.75;4862823;29;20197;-64
2022/01/04 01:52:41;;;;;;;14.53;8.80;;;11.50;72.80;;;14.06;55.92;99825.94;4860852;29;20204;-64
2022/01/04 01:55:10;;;;;;;12.77;9.20;;;11.40;72.90;;;14.07;55.87;99823.06;4862799;29;20710;-64
2022/01/04 01:57:38;;;;;;;10.33;7.53;;;11.40;73.10;;;14.11;55.98;99823.44;4861342;29;20205;-64
2022/01/04 02:00:10;;;;;;;15.27;9.40;;;11.30;73.20;;;14.13;56.00;99816.91;4862103;29;20236;-64
2022/01/04 02:02:38;;;;;;;10.17;8.23;;;11.30;73.30;;;14.18;56.03;99824.19;4862432;29;20662;-64
2022/01/04 02:05:07;;;;;;;12.83;8.33;;;11.30;73.60;;;14.21;55.86;99810.50;4862597;29;20287;-62
2022/01/04 02:07:38;;;;;;;13.40;9.07;;;11.30;73.70;;;14.24;55.43;99812.69;4862124;29;20616;-64
2022/01/04 02:10:08;;;;;;;16.50;10.13;;;11.40;73.80;;;14.25;55.80;99801.91;4862643;29;20208;-64
2022/01/04 02:12:38;;;;;;;14.50;8.83;;;11.40;73.60;;;14.25;55.94;99804.56;4862006;29;20192;-64
2022/01/04 02:15:10;;;;;;;12.47;8.67;;;11.40;73.50;;;14.27;55.58;99799.03;4862377;29;20208;-64
2022/01/04 02:17:38;;;;;;;13.50;8.63;;;11.40;73.50;;;14.29;55.94;99794.31;4862097;29;20281;-64
2022/01/04 02:20:08;;;;;;;12.03;8.40;;;11.40;73.30;;;14.29;55.84;99786.38;4862336;29;20273;-64
2022/01/04 02:22:36;;;;;;;10.90;9.13;;;11.50;73.40;;;14.30;55.93;99790.69;4861656;29;20203;-65
2022/01/04 02:25:05;;;;;;;16.33;9.93;;;11.50;73.40;;;14.26;55.75;99778.91;4862017;29;20197;-64
2022/01/04 02:27:34;;;;;;;12.13;8.33;;;11.50;73.20;;;14.21;56.01;99771.59;4860895;29;20208;-64
2022/01/04 02:30:04;;;;;;;13.53;8.70;;;11.50;73.20;;;14.16;56.09;99773.31;4862181;29;20265;-64
2022/01/04 02:32:31;;;;;;;12.00;8.53;;;11.50;73.20;;;14.12;56.08;99762.34;4861738;29;20200;-64
2022/01/04 02:34:59;;;;;;;13.77;9.47;;;11.40;73.10;;;14.08;56.04;99755.88;4861958;29;20201;-64
2022/01/04 02:37:30;;;;;;;13.40;9.50;;;11.40;73.20;;;14.01;56.23;99755.16;4861756;29;20205;-64
2022/01/04 02:39:57;;;;;;;15.50;9.70;;;11.40;73.10;;;13.95;56.55;99745.44;4876180;29;20267;-63
2022/01/04 02:42:25;;;;;;;16.60;10.33;;;11.30;73.30;;;13.96;56.52;99748.91;4861097;29;20207;-64
2022/01/04 02:44:52;;;;;;;14.57;9.40;;;11.30;73.50;;;13.95;56.46;99747.31;4861685;29;20251;-64
2022/01/04 02:47:20;;;;;;;16.17;9.63;;;11.30;73.70;;;13.92;56.94;99751.19;4861715;29;20698;-64
2022/01/04 02:49:47;;;;;;;16.90;10.40;;;11.30;73.70;;;13.88;56.89;99747.34;4860383;29;20221;-64
2022/01/04 02:52:15;;;;;;;14.53;8.57;;;11.30;74.00;;;13.87;56.87;99737.00;4861542;29;20264;-64
2022/01/04 02:54:44;;;;;;;16.53;9.80;;;11.30;74.00;;;13.92;56.77;99742.44;4860937;29;20236;-64
2022/01/04 02:57:11;;;;;;;13.97;8.67;;;11.20;74.20;;;13.95;56.83;99734.06;4861450;29;20217;-64
2022/01/04 02:59:39;;;;;;;18.03;11.17;;;11.20;74.00;;;13.92;56.85;99729.22;4861425;29;20201;-64
2022/01/04 03:02:06;;;;;;;13.80;9.93;;;11.20;74.00;;;13.87;56.97;99729.88;4861446;29;20227;-64
2022/01/04 03:04:34;;;;;;;13.60;10.23;;;11.20;74.00;;;13.84;57.05;99726.84;4859841;29;20299;-64
2022/01/04 03:07:02;;;;;;;14.27;8.80;;;11.20;74.00;;;13.80;57.02;99728.34;4861210;29;20630;-64
2022/01/04 03:09:30;;;;;;;17.07;11.03;;;11.20;74.00;;;13.78;57.25;99725.09;4860937;29;20216;-64
2022/01/04 03:11:59;;;;;;;15.50;11.57;;;11.20;74.30;;;13.77;57.29;99716.34;4861301;29;20196;-64
2022/01/04 03:14:26;;;;;;;15.60;10.67;;;11.20;74.50;;;13.78;57.18;99709.22;4860713;29;20224;-66
2022/01/04 03:16:54;;;;;;;13.77;10.00;;;11.10;74.40;;;13.77;56.82;99715.53;4861130;29;20296;-64
2022/01/04 03:19:21;;;;;;;12.53;10.23;;;11.10;74.30;;;13.74;57.20;99716.00;4861607;29;20189;-64
2022/01/04 03:21:49;;;;;;;21.00;11.77;;;11.10;74.50;;;13.68;57.63;99714.22;4860843;29;20212;-69
2022/01/04 03:24:17;;;;;;;15.80;11.00;;;11.10;74.90;;;13.69;57.78;99713.22;4859757;29;20253;-64
2022/01/04 03:26:44;;;;;;;12.67;9.50;;;11.10;74.90;;;13.72;58.01;99696.88;4861016;29;20252;-64
2022/01/04 03:29:15;;;;;;;16.83;11.60;;;11.00;75.00;;;13.74;57.74;99689.56;4860876;29;20249;-64
2022/01/04 03:31:45;;;;;;;14.63;10.90;;;11.00;75.10;;;13.78;57.64;99686.25;4860840;29;20534;-64
2022/01/04 03:34:13;;;;;;;13.70;10.83;;;11.10;75.10;;;13.83;57.66;99682.94;4860506;29;20216;-64
2022/01/04 03:36:42;;;;;;;17.70;12.77;;;11.10;75.30;;;13.82;57.59;99670.72;4860589;29;20546;-64
2022/01/04 03:39:11;;;;;;;17.43;12.87;;;11.10;75.30;;;13.79;57.85;99668.50;4860643;29;20197;-64
2022/01/04 03:41:41;;;;;;;19.30;12.33;;;11.10;75.20;;;13.74;58.11;99657.81;4860477;29;20220;-64
2022/01/04 03:44:20;;;;;;;16.13;11.80;;;11.10;75.00;;;13.69;57.87;99660.31;4860924;29;20288;-64
2022/01/04 03:46:51;;;;;;;18.87;12.63;;;11.10;75.00;;;13.66;58.03;99650.16;4860722;29;20660;-64
2022/01/04 03:49:18;;;;;;;17.10;11.57;;;11.10;75.10;;;13.64;58.02;99649.59;4860601;29;20646;-64
2022/01/04 03:51:46;;;;;;;15.97;10.53;;;11.10;75.00;;;13.63;58.04;99647.97;4860652;29;20200;-64
2022/01/04 03:54:14;;;;;;;17.93;11.93;;;11.00;75.80;;;13.61;58.06;99647.38;4860242;29;20300;-64
2022/01/04 03:56:41;;;;;;;17.47;12.70;;;11.00;75.10;;;13.57;58.29;99642.53;4860631;29;20198;-64
2022/01/04 03:59:09;;;;;;;15.70;11.83;;;11.00;75.20;;;13.50;58.26;99641.78;4859006;29;20298;-64
2022/01/04 04:01:38;;;;;;;13.90;11.80;;;11.00;75.20;;;13.45;58.31;99632.94;4860469;29;20311;-64
2022/01/04 04:04:05;;;;;;;18.27;11.83;;;10.90;75.20;;;13.42;58.30;99628.88;4860551;29;20220;-64
2022/01/04 04:06:33;;;;;;;17.33;13.30;;;10.90;75.20;;;13.38;58.62;99622.41;4860359;29;20196;-64
2022/01/04 04:09:00;;;;;;;17.37;12.47;;;10.90;75.40;;;13.34;58.60;99631.00;4860759;29;20223;-63
2022/01/04 04:11:28;;;;;;;15.17;11.80;;;10.80;75.40;;;13.29;58.74;99622.91;4860776;29;20305;-64
2022/01/04 04:13:55;;;;;;;16.00;11.37;;;10.80;75.50;;;13.24;59.08;99618.28;4859708;29;20303;-64
2022/01/04 04:16:22;;;;;;;15.37;12.63;;;10.80;75.80;;;13.19;59.19;99607.56;4860165;29;20605;-64
2022/01/04 04:18:51;;;;;;;14.97;12.40;;;10.70;76.00;;;13.17;59.05;99609.63;4860557;29;20199;-64
2022/01/04 04:21:19;;;;;;;18.73;13.47;;;10.70;76.00;;;13.15;59.32;99601.13;4860847;29;20197;-64
2022/01/04 04:23:46;;;;;;;15.20;12.43;;;10.70;76.10;;;13.13;59.59;99597.06;4860939;29;20674;-63
2022/01/04 04:26:14;;;;;;;17.20;12.97;;;10.60;76.10;;;13.09;59.57;99591.44;4860281;29;20193;-63
2022/01/04 04:28:41;;;;;;;13.80;11.50;;;10.60;76.40;;;13.07;59.38;99596.13;4860225;29;20231;-64
2022/01/04 04:31:08;;;;;;;15.87;12.83;;;10.60;76.50;;;13.07;59.67;99590.03;4859917;29;20247;-66
2022/01/04 04:33:36;;;;;;;13.97;12.07;;;10.60;76.60;;;13.05;59.85;99578.84;4860822;29;20220;-63
2022/01/04 04:36:08;;;;;;;19.77;13.53;;;10.50;76.70;;;13.04;59.69;99567.47;4861238;29;20192;-64
2022/01/04 04:38:35;;;;;;;17.07;12.80;;;10.50;76.80;;;13.01;59.91;99562.63;4859281;29;20245;-64
2022/01/04 04:41:03;;;;;;;17.10;13.47;;;10.50;76.80;;;13.00;59.72;99560.22;4860640;29;20203;-64
2022/01/04 04:43:30;;;;;;;18.63;14.13;;;10.50;77.00;;;12.97;59.89;99566.72;4858359;29;20307;-64
2022/01/04 04:45:57;;;;;;;19.43;12.77;;;10.50;77.00;;;12.95;59.92;99558.22;4860221;29;20197;-64
2022/01/04 04:48:25;;;;;;;16.90;13.10;;;10.50;77.10;;;12.91;60.34;99555.19;4859552;29;20700;-64
2022/01/04 04:50:53;;;;;;;18.43;13.43;;;10.40;77.30;;;12.90;60.26;99547.50;4859966;29;20230;-64
2022/01/04 04:53:22;;;;;;;15.07;12.43;;;10.40;77.50;;;12.91;60.51;99551.75;4859790;29;20303;-63
2022/01/04 04:55:49;;;;;;;17.13;12.97;;;10.40;77.80;;;12.95;60.39;99541.56;4860039;29;20200;-64
2022/01/04 04:58:17;;;;;;;23.07;15.33;;;10.40;78.00;;;12.97;60.51;99528.94;4860274;29;20201;-62
2022/01/04 05:00:44;;;;;;;16.80;12.20;;;10.40;78.20;;;12.98;60.50;99530.56;4859908;29;20283;-63
2022/01/04 05:03:12;;;;;;;16.87;12.97;;;10.40;78.20;;;13.03;60.53;99535.97;4859811;29;20295;-61
2022/01/04 05:05:39;;;;;;;17.87;12.07;;;10.40;78.10;;;13.08;60.43;99526.41;4859556;29;20280;-64
2022/01/04 05:08:06;;;;;;;17.30;12.60;;;10.40;78.20;;;13.12;60.30;99522.28;4860030;29;20217;-64
2022/01/04 05:10:35;;;;;;;17.50;12.67;;;10.50;78.30;;;13.17;60.21;99517.16;4859819;29;20690;-63
2022/01/04 05:13:02;;;;;;;19.67;14.13;;;10.50;78.30;;;13.20;60.30;99503.50;4861752;29;20224;-63
2022/01/04 05:15:30;;;;;;;16.23;12.33;;;10.50;78.40;;;13.26;60.21;99507.09;4863409;29;20216;-63
2022/01/04 05:17:57;;;;;;;17.27;12.73;;;10.60;78.40;;;13.30;60.05;99495.88;4862960;29;20196;-64
2022/01/04 05:20:24;;;;;;;20.07;13.30;;;10.60;78.50;;;13.30;60.05;99498.50;4861690;29;20193;-64
2022/01/04 05:22:52;;;;;;;20.80;13.57;;;10.60;78.30;;;13.30;60.10;99495.06;4862594;29;20229;-64
2022/01/04 05:25:19;;;;;;;21.53;13.73;;;10.70;78.40;;;13.26;60.21;99486.78;4863002;29;20209;-64
2022/01/04 05:27:48;;;;;;;17.23;13.17;;;10.70;78.20;;;13.25;60.26;99500.19;4861791;29;20201;-64
2022/01/04 05:30:15;;;;;;;17.43;12.87;;;10.70;78.20;;;13.25;60.40;99503.66;4861604;29;20530;-64
2022/01/04 05:32:43;;;;;;;19.60;12.50;;;10.70;78.10;;;13.27;60.31;99512.16;4862469;29;20228;-64
2022/01/04 05:35:10;;;;;;;15.93;12.17;;;10.70;78.20;;;13.28;60.46;99503.22;4862686;29;20739;-64
2022/01/04 05:37:37;;;;;;;17.17;13.67;;;10.70;78.20;;;13.31;60.13;99489.53;4860812;29;20212;-65
2022/01/04 05:40:06;;;;;;;20.53;12.50;;;10.70;78.30;;;13.29;60.49;99490.78;4860982;29;20578;-64
2022/01/04 05:42:34;;;;;;;16.43;13.23;;;10.70;78.20;;;13.29;60.40;99488.94;4860659;29;20193;-64
2022/01/04 05:45:03;;;;;;;18.03;12.20;;;10.70;78.10;;;13.33;60.28;99487.50;4862375;29;20227;-65
2022/01/04 05:47:31;;;;;;;16.27;12.03;;;10.70;78.20;;;13.38;60.42;99482.31;4862347;29;20208;-64
2022/01/04 05:49:58;;;;;;;16.93;11.90;;;10.80;78.40;;;13.43;60.11;99485.09;4862062;29;20212;-64
2022/01/04 05:52:26;;;;;;;17.30;12.93;;;10.80;78.40;;;13.52;60.22;99482.97;4860699;29;20693;-64
2022/01/04 05:54:53;;;;;;;15.93;11.83;;;10.80;78.40;;;13.55;59.88;99480.69;4862046;29;20231;-64
2022/01/04 05:57:20;;;;;;;18.90;12.67;;;10.80;78.30;;;13.57;59.84;99475.19;4862146;29;20303;-64
2022/01/04 05:59:48;;;;;;;14.93;12.47;;;10.90;78.30;;;13.56;59.85;99466.44;4862262;29;20273;-64
2022/01/04 06:02:17;;;;;;;19.30;12.23;;;10.90;78.20;;;13.54;59.92;99451.84;4862003;29;20188;-64
2022/01/04 06:04:44;;;;;;;15.90;12.10;;;10.90;78.00;;;13.51;59.74;99445.16;4861927;29;20227;-64
2022/01/04 06:07:11;;;;;;;17.07;12.80;;;10.90;77.90;;;13.49;60.01;99447.22;4862212;29;20229;-64
2022/01/04 06:09:42;;;;;;;17.70;12.97;;;10.90;77.90;;;13.49;60.12;99452.50;4861764;29;20625;-64
2022/01/04 06:14:56;;;;;;;20.57;13.63;;;10.90;78.10;;;13.54;59.98;99473.78;4861700;29;20232;-63
2022/01/04 06:17:28;;;;;;;16.80;11.73;;;10.90;78.20;;;13.56;60.00;99466.44;4862050;29;20201;-64
2022/01/04 06:19:58;;;;;;;12.87;11.47;;;10.90;78.10;;;13.61;59.86;99470.22;4861699;29;20199;-63
2022/01/04 06:22:27;;;;;;;20.60;12.10;;;10.90;78.10;;;13.63;59.80;99462.88;4861325;29;20638;-63
2022/01/04 06:24:56;;;;;;;18.10;13.10;;;11.00;78.10;;;13.63;59.62;99439.09;4861602;29;20276;-64
2022/01/04 06:27:24;;;;;;;14.40;10.40;;;11.00;78.00;;;13.64;59.67;99430.13;4861754;29;20210;-64
2022/01/04 06:29:52;;;;;;;14.90;11.60;;;11.00;78.00;;;13.64;59.63;99424.84;4860861;29;20307;-64
2022/01/04 06:32:19;;;;;;;17.73;12.40;;;11.00;77.90;;;13.61;59.53;99420.81;4861516;29;20287;-63
2022/01/04 06:34:48;;;;;;;18.80;12.37;;;11.00;77.80;;;13.60;59.67;99421.06;4861290;29;20235;-63
2022/01/04 06:37:17;;;;;;;19.20;12.70;;;11.00;77.80;;;13.60;59.63;99421.06;4860266;29;20279;-64
2022/01/04 06:39:45;;;;;;;15.40;11.57;;;11.00;77.80;;;13.62;59.72;99406.53;4860134;29;20224;-64
2022/01/04 06:42:13;;;;;;;15.37;12.27;;;11.00;77.80;;;13.63;59.62;99402.06;4861523;29;20201;-64
2022/01/04 06:44:43;;;;;;;14.83;11.80;;;11.00;77.70;;;13.63;59.61;99410.81;4860886;29;20216;-64
2022/01/04 06:47:11;;;;;;;15.83;11.57;;;11.00;77.70;;;13.66;59.81;99398.97;4861147;29;20613;-63
2022/01/04 06:49:39;;;;;;;14.03;10.33;;;11.00;77.80;;;13.67;59.69;99403.25;4860836;29;20215;-64
2022/01/04 06:52:09;;;;;;;15.77;11.33;;;11.10;77.70;;;13.67;59.74;99408.53;4861000;29;20207;-64
2022/01/04 06:54:36;;;;;;;14.80;11.53;;;11.00;77.70;;;13.74;59.64;99414.53;4860773;29;20299;-64
2022/01/04 06:57:04;;;;;;;11.53;10.00;;;11.00;77.90;;;13.79;59.30;99407.50;4859893;29;20209;-64
2022/01/04 06:59:32;;;;;;;11.83;10.43;;;11.00;78.10;;;13.84;59.29;99414.75;4860844;29;20221;-64
2022/01/04 07:02:00;;;;;;;14.33;10.57;;;11.00;78.10;;;13.86;59.22;99410.84;4859285;29;20303;-64
2022/01/04 07:04:28;;;;;;;13.47;10.73;;;11.10;78.10;;;13.87;59.18;99419.59;4860455;29;20275;-64
2022/01/04 07:06:56;;;;;;;15.10;10.60;;;11.10;78.00;;;13.87;59.04;99407.19;4861755;29;20562;-65
2022/01/04 07:09:24;;;;;;;11.70;10.00;;;11.10;77.90;;;13.86;59.10;99402.13;4859522;29;20714;-64
2022/01/04 07:11:52;;;;;;;16.13;11.10;;;11.10;77.80;;;13.83;59.24;99402.56;4861128;29;20204;-62
2022/01/04 07:14:20;;;;;;;12.53;10.53;;;11.10;77.80;;;13.81;59.15;99405.44;4860263;29;20554;-64
2022/01/04 07:16:47;;;;;;;15.37;11.07;;;11.10;77.80;;;13.82;59.60;99404.41;4861053;29;20228;-64
2022/01/04 07:19:15;;;;;;;12.57;9.30;;;11.10;77.90;;;13.87;59.27;99398.44;4859557;29;20207;-64
2022/01/04 07:21:42;;;;;;;11.83;8.43;;;11.10;78.00;;;13.92;59.20;99395.91;4860579;29;20332;-63
2022/01/04 07:24:10;;;;;;;12.90;8.43;;;11.10;78.10;;;13.99;58.93;99389.47;4860839;29;20216;-64
2022/01/04 07:26:38;;;;;;;13.60;10.33;;;11.10;78.20;;;14.02;59.04;99381.09;4860714;29;20228;-64
2022/01/04 07:29:06;;;;;;;14.03;9.73;;;11.20;78.10;;;14.04;59.20;99383.50;4859998;29;20284;-64
2022/01/04 07:31:33;;;;;;;12.27;10.10;;;11.20;78.00;;;14.03;58.99;99387.16;4860975;29;20211;-64
2022/01/04 07:34:01;;;;;;;15.60;10.93;;;11.20;77.80;;;14.02;59.04;99382.94;4860151;29;20220;-64
2022/01/04 07:36:30;;;;;;;14.77;11.17;;;11.20;77.80;;;14.03;59.01;99392.44;4860300;29;20232;-64
2022/01/04 07:38:58;;;;;;;11.90;10.27;;;11.30;77.80;;;14.05;59.11;99390.38;4860661;29;20279;-64
2022/01/04 07:41:26;;;;;;;15.13;11.60;;;11.30;77.70;;;14.00;59.08;99387.66;4860371;29;20197;-63
2022/01/04 07:43:55;;;;;;;18.07;11.43;;;11.30;77.50;;;13.93;58.94;99387.72;4859675;29;20307;-64
2022/01/04 07:46:23;;;;;;;13.13;10.43;;;11.30;77.30;;;13.90;59.30;99384.75;4860471;29;20284;-64
2022/01/04 07:48:51;;;;;;;13.80;9.83;;;11.30;77.30;;;13.90;59.28;99371.53;4860199;29;20260;-62
2022/01/04 07:51:19;;;;;;;13.17;11.27;;;11.30;77.30;;;13.92;59.28;99370.28;4860459;29;20283;-63
2022/01/04 07:53:47;;;;;;;14.50;11.63;;;11.30;77.50;;;13.98;59.29;99360.59;4860090;29;20258;-63
2022/01/04 07:56:14;;;;;;;14.90;11.60;;;11.30;77.50;;;14.01;59.08;99368.06;4860670;29;20287;-62
2022/01/04 07:58:41;;;;;;;14.97;10.33;;;11.30;77.60;;;14.04;58.99;99372.91;4860628;29;20195;-62
2022/01/04 08:01:10;;;;;;;24.70;14.50;;;11.30;77.50;;;14.09;59.01;99365.91;4860550;29;20203;-64
2022/01/04 08:03:38;;;;;;;18.20;11.33;;;11.30;77.50;;;14.12;58.77;99359.34;4858602;29;20558;-64
2022/01/04 08:06:05;;;;;;;15.20;9.30;;;11.30;77.50;;;14.13;58.70;99368.88;4860176;29;20200;-64
2022/01/04 08:08:33;;;;;;;14.47;10.53;;;11.30;77.50;;;14.16;58.63;99366.59;4858241;29;20649;-63
2022/01/04 08:11:00;;;;;;;12.40;10.57;;;11.30;77.50;;;14.19;58.56;99360.03;4859155;29;20227;-64
2022/01/04 08:13:30;;;;;;;13.70;10.97;;;11.30;77.50;;;14.20;58.47;99357.13;4860487;29;20227;-65
2022/01/04 08:15:57;;;;;;;14.30;9.87;;;11.30;77.50;;;14.21;58.57;99350.78;4860222;29;20209;-64
2022/01/04 08:18:26;;;;;;;17.30;11.13;;;11.40;77.40;;;14.26;58.18;99344.84;4858876;29;20586;-64
2022/01/04 08:20:57;;;;;;;12.37;10.73;;;11.40;77.30;;;14.28;58.40;99345.41;4860283;29;20646;-63
2022/01/04 08:23:25;;;;;;;12.80;9.53;;;11.40;77.20;;;14.27;58.35;99343.78;4858732;29;20216;-61
2022/01/04 08:25:54;;;;;;;16.23;11.60;;;11.40;77.00;;;14.30;58.22;99335.41;4860622;29;20200;-58
2022/01/04 08:28:22;;;;;;;14.87;9.90;;;11.50;77.20;;;14.31;58.37;99337.00;4860106;29;20312;-61
2022/01/04 08:30:50;;;;;;;13.10;10.67;;;11.50;77.00;;;14.29;58.22;99327.69;4860580;29;20614;-58
2022/01/04 08:33:32;;;;;;;17.23;10.93;;;11.50;76.80;;;14.23;58.33;99324.94;4858373;29;20212;-60
2022/01/04 08:35:59;;;;;;;14.77;11.17;;;11.50;76.50;;;14.21;58.39;99320.91;4860372;29;20209;-59
2022/01/04 08:38:31;;;;;;;13.40;10.40;;;11.50;76.40;;;14.20;58.29;99319.28;4860000;29;20531;-60
2022/01/04 08:40:58;;;;;;;10.47;8.47;;;11.50;76.40;;;14.20;58.28;99324.56;4859793;29;20260;-59
2022/01/04 08:43:27;;;;;;;15.73;10.00;;;11.50;76.40;;;14.22;58.24;99322.50;4859486;29;20221;-61
2022/01/04 08:45:55;;;;;;;12.00;9.47;;;11.50;76.50;;;14.28;58.21;99316.28;4859261;29;20288;-61
2022/01/04 08:48:22;;;;;;;13.17;11.30;;;11.50;76.40;;;14.36;57.90;99323.88;4862496;29;20205;-60
2022/01/04 08:50:51;;;;;;;14.57;10.03;;;11.60;76.50;;;14.40;57.84;99318.94;4864325;29;20240;-60
2022/01/04 08:53:19;;;;;;;10.17;8.90;;;11.60;76.50;;;14.45;57.77;99309.25;4862509;29;20224;-61
2022/01/04 08:55:47;;;;;;;16.00;11.13;;;11.60;76.40;;;14.51;57.71;99305.66;4863520;29;20666;-59
2022/01/04 08:58:15;;;;;;;11.87;9.63;;;11.60;76.20;;;14.56;57.41;99299.66;4863400;29;20232;-61
2022/01/04 09:00:43;;;;;;;10.17;9.00;;;11.60;76.10;;;14.61;57.39;99305.06;4863244;29;20284;-59
2022/01/04 09:03:11;;;;;;;14.60;11.17;;;11.60;76.10;;;14.57;57.25;99294.13;4862989;29;20288;-59
2022/01/04 09:05:39;;;;;;;11.17;9.87;;;11.70;76.00;;;14.56;56.93;99308.41;4863129;29;20662;-63
2022/01/04 09:08:07;;;;;;;12.43;9.40;;;11.70;75.90;;;14.57;57.06;99299.41;4863222;29;20562;-60
2022/01/04 09:10:35;;;;;;;14.17;10.13;;;11.70;75.90;;;14.58;57.41;99295.72;4863581;29;20228;-60
2022/01/04 09:13:14;;;;;;;14.57;11.30;;;11.70;75.80;;;14.59;56.84;99297.34;4862967;29;20307;-60
2022/01/04 09:18:48;;;;;;;12.47;10.57;;;11.70;75.80;;;14.48;57.31;99295.53;4863717;29;20630;-59
2022/01/04 09:21:26;;;;;;;12.07;9.30;;;11.70;75.40;;;14.39;57.45;99304.88;4863603;29;20211;-60
2022/01/04 09:23:57;;;;;;;14.50;11.13;;;11.80;75.30;;;14.39;57.65;99301.44;4863656;29;20220;-61
2022/01/04 09:26:26;;;;;;;14.40;11.30;;;11.70;75.30;;;14.43;57.46;99302.59;4863987;29;20239;-60
2022/01/04 09:28:54;;;;;;;14.57;10.53;;;11.70;75.30;;;14.46;57.39;99302.91;4863233;29;20654;-62
2022/01/04 09:31:23;;;;;;;12.23;10.00;;;11.70;75.40;;;14.52;57.58;99309.94;4863360;29;20220;-61
2022/01/04 09:33:52;;;;;;;15.87;11.63;;;11.70;75.50;;;14.52;57.15;99322.34;4861546;29;20379;-62
2022/01/04 09:36:26;;;;;;;15.80;11.70;;;11.70;75.40;;;14.53;57.03;99311.53;4862847;29;20271;-60
2022/01/04 09:38:55;;;;;;;15.73;10.27;;;11.70;75.30;;;14.56;57.09;99311.06;4863089;29;20299;-60
2022/01/04 09:41:23;;;;;;;15.83;11.73;;;11.70;75.40;;;14.57;56.66;99310.00;4862398;29;20268;-61
2022/01/04 09:43:52;;;;;;;13.90;10.13;;;11.70;75.30;;;14.58;57.12;99311.63;4862407;29;20220;-63
2022/01/04 09:46:20;;;;;;;14.37;10.87;;;11.80;75.50;;;14.62;56.91;99317.25;4862080;29;20284;-61
2022/01/04 09:48:48;;;;;;;15.77;12.07;;;11.80;75.40;;;14.58;56.82;99305.50;4859271;29;20296;-57
2022/01/04 09:51:18;;;;;;;20.53;15.03;;;11.80;75.10;;;14.46;57.24;99310.84;4857140;29;20316;-65
2022/01/04 09:53:45;;;;;;;14.37;12.37;;;11.80;74.90;;;14.51;57.23;99305.66;4860991;29;20716;-65
2022/01/04 09:56:18;;;;;;;16.53;11.53;;;11.80;75.20;;;14.57;57.00;99309.22;4846566;29;20208;-64
2022/01/04 09:58:46;;;;;;;15.77;11.73;;;11.80;75.10;;;14.62;56.95;99319.91;4849274;29;20276;-63
2022/01/04 10:01:22;;;;;;;14.27;11.13;;;11.80;75.10;;;14.61;56.87;99311.16;4850954;29;20193;-65
2022/01/04 10:04:10;;;;;;;13.20;10.30;;;11.90;75.20;;;14.65;56.89;99301.69;4851206;29;20235;-62
2022/01/04 10:06:39;;;;;;;12.63;10.07;;;11.90;75.20;;;14.69;56.56;99308.13;4851988;29;20257;-65
2022/01/04 10:09:11;;;;;;;17.57;11.13;;;11.90;75.10;;;14.72;56.80;99312.94;4851312;29;20216;-65
2022/01/04 10:11:44;;;;;;;19.07;12.67;;;11.90;75.10;;;14.74;56.53;99307.41;4851029;29;20253;-64
2022/01/04 10:14:36;;;;;;;19.60;13.13;;;11.90;74.90;;;14.69;56.50;99313.41;4850155;29;20251;-66
2022/01/04 10:17:07;;;;;;;16.83;12.47;;;11.90;75.10;;;14.59;57.30;99307.94;4848552;29;20261;-62
2022/01/04 10:19:38;;;;;;;13.23;11.60;;;11.80;75.60;;;14.40;57.75;99309.16;4849245;29;20205;-63
2022/01/04 10:22:23;;;;;;;13.40;10.80;;;11.80;75.90;;;14.26;58.29;99297.97;4850668;29;20192;-63
2022/01/04 10:25:11;;;;;;;12.53;9.90;;;11.70;76.30;;;14.22;58.34;99296.03;4852205;29;20233;-65